Terminal Aerodrome Forecast
Issued by NWS Cleveland, OH

Home | Current Version | Previous Version | Graphics & Text | Print | Product List | Glossary On
Versions: 1 2 3 4 5 6 7 8 9 10 11 12 13 14 15 16 17 18 19 20 21 22 23 24 25
000
FTUS41 KCLE 231500 AAC
TAFMFD
TAF AMD
KMFD 231514Z 2315/2412 32008KT P6SM BKN008
      TEMPO 2315/2316 SCT015
     FM231600 31005KT P6SM SCT015
     FM231800 31005KT P6SM SCT250
     FM232300 29003KT P6SM BKN250=

USA.gov is the U.S. government's official web portal to all federal, state and local government web resources and services.